Neso — HO7720 — position and weather

sailwx.info

Track history (hours):
 
Tides and Currents Weather Stations Pressure Air Temp Water Temp Dewpoint Dewpoint Depression Visibility Wind Speed Wind Dir Waves Ship Positions

Neso

Last reported at 2017-Nov-17 19:41 UTC. Time now 2017-Nov-21 02:29 UTC.
Position N 10°24' W 075°31'.

Length 16 m.

Type: Sailing vessel. MMSI: 351387000.

Date/timePositionNaut miles runAvg speedWind from/ knotsBaromVisibWave heightAir tempDewpointWater temp
2017-Nov-17 19:41N 10°24' W 075°31'0 0.0
2017-Nov-17 19:11N 10°24' W 075°31'0 0.0
2017-Nov-17 18:53N 10°24' W 075°31'0 0.0
2017-Nov-17 18:29N 10°24' W 075°31'0 0.0
2017-Nov-17 17:53N 10°24' W 075°31'0 0.0
2017-Nov-17 17:29N 10°24' W 075°31'0 0.0
2017-Nov-17 16:53N 10°24' W 075°31'0 0.0
2017-Nov-17 16:29N 10°24' W 075°31'0 0.0
2017-Nov-17 15:59N 10°24' W 075°31'0 0.0
2017-Nov-17 15:29N 10°24' W 075°31'0 0.0
2017-Nov-17 14:53N 10°24' W 075°31'0 0.0
2017-Nov-17 14:29N 10°24' W 075°31'0 0.0
2017-Nov-17 13:59N 10°24' W 075°31'0 0.0
2017-Nov-17 12:41N 10°24' W 075°31'0 0.0
2017-Nov-17 07:35N 10°24' W 075°31'0 0.0
2017-Nov-17 05:44N 10°24' W 075°31'0 0.0
2017-Nov-17 05:20N 10°24' W 075°31'0 0.0
2017-Nov-17 04:56N 10°24' W 075°31'0 0.0
2017-Nov-16 23:03N 10°24' W 075°31'0 0.0
2017-Nov-16 22:54N 10°24' W 075°31'0 0.0
2017-Nov-16 22:24N 10°24' W 075°31'0 0.0
2017-Nov-16 21:51N 10°24' W 075°31'0 0.0
2017-Nov-16 21:27N 10°24' W 075°31'0 0.0
2017-Nov-16 20:33N 10°24' W 075°31'0 0.0
2017-Nov-16 20:21N 10°24' W 075°31'0 0.0
2017-Nov-16 19:57N 10°24' W 075°31'0 0.0
2017-Nov-16 18:48N 10°24' W 075°31'0 0.0
2017-Nov-16 18:21N 10°24' W 075°31'0 0.0
2017-Nov-16 12:12N 10°24' W 075°31'  
2017-Nov-11 22:36N 10°24' W 075°33'1 4.6
2017-Nov-11 22:25N 10°23' W 075°33'2 5.8
2017-Nov-11 22:00N 10°23' W 075°35'2 4.9
2017-Nov-11 21:30N 10°21' W 075°37'2 4.2
2017-Nov-11 21:00N 10°19' W 075°38'4 0.6
2017-Nov-11 13:52N 10°15' W 075°40'3 6.7
2017-Nov-11 13:29N 10°18' W 075°39'3 6.6
2017-Nov-11 12:59N 10°21' W 075°37'4 6.0
2017-Nov-11 12:15N 10°23' W 075°34'1 4.9
2017-Nov-11 11:59N 10°24' W 075°33'0 0.8
2017-Nov-11 11:30N 10°24' W 075°33'0 0.0
2017-Nov-11 10:57N 10°24' W 075°33'0 0.0
2017-Nov-11 09:54N 10°24' W 075°33'1 0.2
2017-Nov-11 04:41N 10°23' W 075°33'  
Track history (hours):
 
Tides and Currents Weather Stations Pressure Air Temp Water Temp Dewpoint Dewpoint Depression Visibility Wind Speed Wind Dir Waves Ship Positions

Neso

Last reported at 2017-Nov-17 19:41 UTC. Time now 2017-Nov-21 02:30 UTC.
Position N 10°24' W 075°31'.

Length 16 m.

Type: Sailing vessel. MMSI: 351387000.

Date/timePositionNaut miles runAvg speedWind from/ knotsBaromVisibWave heightAir tempDewpointWater temp
2017-Nov-17 19:41N 10°24' W 075°31'0 0.0
2017-Nov-17 19:11N 10°24' W 075°31'0 0.0
2017-Nov-17 18:53N 10°24' W 075°31'0 0.0
2017-Nov-17 18:29N 10°24' W 075°31'0 0.0
2017-Nov-17 17:53N 10°24' W 075°31'0 0.0
2017-Nov-17 17:29N 10°24' W 075°31'0 0.0
2017-Nov-17 16:53N 10°24' W 075°31'0 0.0
2017-Nov-17 16:29N 10°24' W 075°31'0 0.0
2017-Nov-17 15:59N 10°24' W 075°31'0 0.0
2017-Nov-17 15:29N 10°24' W 075°31'0 0.0
2017-Nov-17 14:53N 10°24' W 075°31'0 0.0
2017-Nov-17 14:29N 10°24' W 075°31'0 0.0
2017-Nov-17 13:59N 10°24' W 075°31'0 0.0
2017-Nov-17 12:41N 10°24' W 075°31'0 0.0
2017-Nov-17 07:35N 10°24' W 075°31'0 0.0
2017-Nov-17 05:44N 10°24' W 075°31'0 0.0
2017-Nov-17 05:20N 10°24' W 075°31'0 0.0
2017-Nov-17 04:56N 10°24' W 075°31'0 0.0
2017-Nov-16 23:03N 10°24' W 075°31'0 0.0
2017-Nov-16 22:54N 10°24' W 075°31'0 0.0
2017-Nov-16 22:24N 10°24' W 075°31'0 0.0
2017-Nov-16 21:51N 10°24' W 075°31'0 0.0
2017-Nov-16 21:27N 10°24' W 075°31'0 0.0
2017-Nov-16 20:33N 10°24' W 075°31'0 0.0
2017-Nov-16 20:21N 10°24' W 075°31'0 0.0
2017-Nov-16 19:57N 10°24' W 075°31'0 0.0
2017-Nov-16 18:48N 10°24' W 075°31'0 0.0
2017-Nov-16 18:21N 10°24' W 075°31'0 0.0
2017-Nov-16 12:12N 10°24' W 075°31'  
2017-Nov-11 22:36N 10°24' W 075°33'1 4.6
2017-Nov-11 22:25N 10°23' W 075°33'2 5.8
2017-Nov-11 22:00N 10°23' W 075°35'2 4.9
2017-Nov-11 21:30N 10°21' W 075°37'2 4.2
2017-Nov-11 21:00N 10°19' W 075°38'4 0.6
2017-Nov-11 13:52N 10°15' W 075°40'3 6.7
2017-Nov-11 13:29N 10°18' W 075°39'3 6.6
2017-Nov-11 12:59N 10°21' W 075°37'4 6.0
2017-Nov-11 12:15N 10°23' W 075°34'1 4.9
2017-Nov-11 11:59N 10°24' W 075°33'0 0.8
2017-Nov-11 11:30N 10°24' W 075°33'0 0.0
2017-Nov-11 10:57N 10°24' W 075°33'0 0.0
2017-Nov-11 09:54N 10°24' W 075°33'1 0.2
2017-Nov-11 04:41N 10°23' W 075°33'  

Dump ship's entire track history